sensor_id;sensor_type;location;lat;lon;timestamp;pressure;altitude;pressure_sealevel;temperature;humidity
13124;BME280;6627;50.920;12.050;2023-04-05T00:00:27;98484.03;;;7.24;46.11
13124;BME280;6627;50.920;12.050;2023-04-05T00:02:56;98442.66;;;6.91;46.69
13124;BME280;6627;50.920;12.050;2023-04-05T00:05:25;98514.38;;;7.06;47.85
13124;BME280;6627;50.920;12.050;2023-04-05T00:07:55;98589.53;;;7.61;47.20
13124;BME280;6627;50.920;12.050;2023-04-05T00:10:24;98584.16;;;7.61;46.98
13124;BME280;6627;50.920;12.050;2023-04-05T00:12:51;98556.75;;;7.53;46.84
13124;BME280;6627;50.920;12.050;2023-04-05T00:15:18;98545.75;;;7.50;46.88
13124;BME280;6627;50.920;12.050;2023-04-05T00:17:47;98605.03;;;7.50;47.56
13124;BME280;6627;50.920;12.050;2023-04-05T00:20:14;98668.53;;;7.90;46.85
13124;BME280;6627;50.920;12.050;2023-04-05T00:22:41;98819.22;;;8.84;45.09
13124;BME280;6627;50.920;12.050;2023-04-05T00:25:09;98702.88;;;8.32;45.20
13124;BME280;6627;50.920;12.050;2023-04-05T00:27:37;98703.59;;;8.14;46.35
13124;BME280;6627;50.920;12.050;2023-04-05T00:30:06;98640.53;;;7.86;45.91
13124;BME280;6627;50.920;12.050;2023-04-05T00:32:33;98735.25;;;8.32;46.02
13124;BME280;6627;50.920;12.050;2023-04-05T00:35:02;98758.72;;;8.61;45.22
13124;BME280;6627;50.920;12.050;2023-04-05T00:37:29;98779.41;;;8.95;44.38
13124;BME280;6627;50.920;12.050;2023-04-05T00:39:56;98793.41;;;8.97;44.68
13124;BME280;6627;50.920;12.050;2023-04-05T00:42:24;98815.81;;;9.21;43.44
13124;BME280;6627;50.920;12.050;2023-04-05T00:44:51;98796.38;;;9.19;43.44
13124;BME280;6627;50.920;12.050;2023-04-05T00:47:18;98834.97;;;9.44;42.98
13124;BME280;6627;50.920;12.050;2023-04-05T00:49:46;98633.94;;;8.45;44.13
13124;BME280;6627;50.920;12.050;2023-04-05T00:52:14;98660.22;;;8.34;45.22
13124;BME280;6627;50.920;12.050;2023-04-05T00:54:44;98533.94;;;7.94;44.69
13124;BME280;6627;50.920;12.050;2023-04-05T00:57:11;98588.59;;;7.99;45.05
13124;BME280;6627;50.920;12.050;2023-04-05T00:59:39;98573.97;;;7.81;45.50
13124;BME280;6627;50.920;12.050;2023-04-05T01:02:15;98746.91;;;9.00;44.01
13124;BME280;6627;50.920;12.050;2023-04-05T01:04:53;98694.16;;;8.41;45.81
13124;BME280;6627;50.920;12.050;2023-04-05T01:07:29;98665.81;;;8.19;46.34
13124;BME280;6627;50.920;12.050;2023-04-05T01:09:59;98652.63;;;8.42;45.41
13124;BME280;6627;50.920;12.050;2023-04-05T01:12:29;98707.81;;;8.73;44.81
13124;BME280;6627;50.920;12.050;2023-04-05T01:14:59;98643.28;;;8.53;44.26
13124;BME280;6627;50.920;12.050;2023-04-05T01:17:28;98751.16;;;9.06;44.15
13124;BME280;6627;50.920;12.050;2023-04-05T01:20:05;98722.16;;;8.93;44.38
13124;BME280;6627;50.920;12.050;2023-04-05T01:26:37;98584.72;;;8.11;45.25
13124;BME280;6627;50.920;12.050;2023-04-05T01:29:49;98691.78;;;8.34;46.37
13124;BME280;6627;50.920;12.050;2023-04-05T01:32:29;98679.06;;;8.40;46.29
13124;BME280;6627;50.920;12.050;2023-04-05T01:35:10;98729.88;;;8.80;45.64
13124;BME280;6627;50.920;12.050;2023-04-05T01:37:44;98696.56;;;8.66;45.40
13124;BME280;6627;50.920;12.050;2023-04-05T01:40:14;98633.53;;;8.57;44.75
13124;BME280;6627;50.920;12.050;2023-04-05T01:42:43;98710.91;;;8.86;44.82
13124;BME280;6627;50.920;12.050;2023-04-05T01:45:12;98622.72;;;8.57;44.19
13124;BME280;6627;50.920;12.050;2023-04-05T01:47:40;98603.09;;;8.27;44.93
13124;BME280;6627;50.920;12.050;2023-04-05T01:50:08;98713.66;;;8.80;44.56
13124;BME280;6627;50.920;12.050;2023-04-05T01:52:35;98623.78;;;8.13;45.62
13124;BME280;6627;50.920;12.050;2023-04-05T01:55:02;98756.16;;;8.94;45.18
13124;BME280;6627;50.920;12.050;2023-04-05T01:57:30;98703.78;;;8.95;44.23
13124;BME280;6627;50.920;12.050;2023-04-05T01:59:57;98611.25;;;8.22;45.25
13124;BME280;6627;50.920;12.050;2023-04-05T02:02:25;98736.56;;;8.64;46.31
13124;BME280;6627;50.920;12.050;2023-04-05T02:04:52;98668.38;;;8.53;45.08
13124;BME280;6627;50.920;12.050;2023-04-05T02:07:19;98676.72;;;8.57;45.31
13124;BME280;6627;50.920;12.050;2023-04-05T02:09:47;98721.72;;;8.86;45.20
13124;BME280;6627;50.920;12.050;2023-04-05T02:12:14;98771.09;;;9.10;44.82
13124;BME280;6627;50.920;12.050;2023-04-05T02:14:41;98591.28;;;8.23;45.24
13124;BME280;6627;50.920;12.050;2023-04-05T02:17:08;98658.97;;;8.51;45.21
13124;BME280;6627;50.920;12.050;2023-04-05T02:19:36;98600.84;;;8.34;44.82
13124;BME280;6627;50.920;12.050;2023-04-05T02:22:07;98555.03;;;7.87;45.51
13124;BME280;6627;50.920;12.050;2023-04-05T02:24:34;98683.59;;;8.68;44.74
13124;BME280;6627;50.920;12.050;2023-04-05T02:27:01;98590.94;;;8.30;44.34
13124;BME280;6627;50.920;12.050;2023-04-05T02:29:28;98598.28;;;8.24;44.99
13124;BME280;6627;50.920;12.050;2023-04-05T02:31:56;98581.53;;;8.03;45.48
13124;BME280;6627;50.920;12.050;2023-04-05T02:34:23;98630.88;;;8.04;46.66
13124;BME280;6627;50.920;12.050;2023-04-05T02:36:53;98621.47;;;8.25;45.50
13124;BME280;6627;50.920;12.050;2023-04-05T02:39:20;98618.84;;;8.20;46.11
13124;BME280;6627;50.920;12.050;2023-04-05T02:41:48;98543.81;;;7.79;46.34
13124;BME280;6627;50.920;12.050;2023-04-05T02:44:15;98520.84;;;7.34;47.75
13124;BME280;6627;50.920;12.050;2023-04-05T02:46:42;98467.44;;;7.17;47.54
13124;BME280;6627;50.920;12.050;2023-04-05T02:49:09;98505.94;;;7.42;47.23
13124;BME280;6627;50.920;12.050;2023-04-05T02:51:36;98502.63;;;7.50;46.84
13124;BME280;6627;50.920;12.050;2023-04-05T02:54:05;98504.91;;;7.38;47.43
13124;BME280;6627;50.920;12.050;2023-04-05T02:56:32;98459.00;;;7.00;47.89
13124;BME280;6627;50.920;12.050;2023-04-05T02:58:59;98690.59;;;8.21;46.65
13124;BME280;6627;50.920;12.050;2023-04-05T03:01:26;98553.16;;;7.63;46.80
13124;BME280;6627;50.920;12.050;2023-04-05T03:03:54;98488.88;;;7.27;46.83
13124;BME280;6627;50.920;12.050;2023-04-05T03:06:21;98500.13;;;7.05;48.31
13124;BME280;6627;50.920;12.050;2023-04-05T03:08:49;98634.88;;;7.82;47.90
13124;BME280;6627;50.920;12.050;2023-04-05T03:11:17;98658.56;;;8.15;47.10
13124;BME280;6627;50.920;12.050;2023-04-05T03:13:44;98654.38;;;8.03;47.31
13124;BME280;6627;50.920;12.050;2023-04-05T03:16:12;98605.63;;;7.71;47.59
13124;BME280;6627;50.920;12.050;2023-04-05T03:18:39;98428.69;;;6.55;48.88
13124;BME280;6627;50.920;12.050;2023-04-05T03:21:06;98585.28;;;7.25;49.32
13124;BME280;6627;50.920;12.050;2023-04-05T03:23:36;98717.66;;;8.11;48.41
13124;BME280;6627;50.920;12.050;2023-04-05T03:26:04;98669.63;;;8.13;46.66
13124;BME280;6627;50.920;12.050;2023-04-05T03:28:32;98549.41;;;7.59;47.16
13124;BME280;6627;50.920;12.050;2023-04-05T03:30:59;98639.25;;;7.78;47.46
13124;BME280;6627;50.920;12.050;2023-04-05T03:33:26;98623.66;;;7.75;47.35
13124;BME280;6627;50.920;12.050;2023-04-05T03:35:54;98707.56;;;7.98;48.28
13124;BME280;6627;50.920;12.050;2023-04-05T03:38:21;98756.53;;;8.63;46.59
13124;BME280;6627;50.920;12.050;2023-04-05T03:40:48;98626.34;;;7.99;46.62
13124;BME280;6627;50.920;12.050;2023-04-05T03:43:15;98690.03;;;8.24;46.49
13124;BME280;6627;50.920;12.050;2023-04-05T03:45:43;98720.03;;;8.47;46.12
13124;BME280;6627;50.920;12.050;2023-04-05T03:48:10;98697.13;;;8.15;46.80
13124;BME280;6627;50.920;12.050;2023-04-05T03:50:38;98650.19;;;8.16;45.54
13124;BME280;6627;50.920;12.050;2023-04-05T03:53:05;98699.69;;;8.54;44.90
13124;BME280;6627;50.920;12.050;2023-04-05T03:55:32;98617.47;;;7.99;45.90
13124;BME280;6627;50.920;12.050;2023-04-05T03:57:59;98642.59;;;8.18;45.59
13124;BME280;6627;50.920;12.050;2023-04-05T04:00:26;98751.00;;;8.49;46.35
13124;BME280;6627;50.920;12.050;2023-04-05T04:02:55;98745.91;;;8.72;45.74
13124;BME280;6627;50.920;12.050;2023-04-05T04:05:23;98585.69;;;7.72;47.13
13124;BME280;6627;50.920;12.050;2023-04-05T04:07:50;98751.25;;;8.53;46.55
13124;BME280;6627;50.920;12.050;2023-04-05T04:10:17;98703.44;;;8.29;46.70
13124;BME280;6627;50.920;12.050;2023-04-05T04:12:45;98640.28;;;8.30;45.96
13124;BME280;6627;50.920;12.050;2023-04-05T04:15:12;98695.19;;;8.45;46.09
13124;BME280;6627;50.920;12.050;2023-04-05T04:17:39;98693.66;;;8.39;46.31
13124;BME280;6627;50.920;12.050;2023-04-05T04:20:08;98676.47;;;8.29;46.41
13124;BME280;6627;50.920;12.050;2023-04-05T04:22:37;98553.16;;;7.34;47.51
13124;BME280;6627;50.920;12.050;2023-04-05T04:25:07;98579.91;;;7.25;48.64
13124;BME280;6627;50.920;12.050;2023-04-05T04:27:40;98643.31;;;7.76;48.14
13124;BME280;6627;50.920;12.050;2023-04-05T04:30:10;98644.38;;;7.80;48.02
13124;BME280;6627;50.920;12.050;2023-04-05T04:32:39;98514.78;;;6.89;49.53
13124;BME280;6627;50.920;12.050;2023-04-05T04:35:23;98539.75;;;7.00;49.91
13124;BME280;6627;50.920;12.050;2023-04-05T04:37:53;98717.75;;;8.01;48.23
13124;BME280;6627;50.920;12.050;2023-04-05T04:40:23;98741.59;;;8.18;47.86
13124;BME280;6627;50.920;12.050;2023-04-05T04:42:51;98480.03;;;6.93;47.67
13124;BME280;6627;50.920;12.050;2023-04-05T04:45:19;98404.81;;;6.14;49.88
13124;BME280;6627;50.920;12.050;2023-04-05T04:47:48;98546.19;;;6.99;49.25
13124;BME280;6627;50.920;12.050;2023-04-05T04:50:20;98488.28;;;6.72;49.12
13124;BME280;6627;50.920;12.050;2023-04-05T04:52:47;98774.25;;;8.16;48.03
13124;BME280;6627;50.920;12.050;2023-04-05T04:55:14;98694.53;;;8.05;46.99
13124;BME280;6627;50.920;12.050;2023-04-05T04:57:42;98692.59;;;7.81;48.43
13124;BME280;6627;50.920;12.050;2023-04-05T05:00:10;98677.78;;;7.79;47.85
13124;BME280;6627;50.920;12.050;2023-04-05T05:02:41;98684.34;;;7.97;47.05
13124;BME280;6627;50.920;12.050;2023-04-05T05:05:10;98798.75;;;8.54;46.66
13124;BME280;6627;50.920;12.050;2023-04-05T05:07:40;98748.72;;;8.38;46.21
13124;BME280;6627;50.920;12.050;2023-04-05T05:10:09;98687.22;;;8.05;46.64
13124;BME280;6627;50.920;12.050;2023-04-05T05:12:37;98701.44;;;8.16;46.66
13124;BME280;6627;50.920;12.050;2023-04-05T05:15:06;98610.97;;;7.47;47.66
13124;BME280;6627;50.920;12.050;2023-04-05T05:17:33;98671.44;;;7.65;48.25
13124;BME280;6627;50.920;12.050;2023-04-05T05:20:01;98785.69;;;8.32;47.82
13124;BME280;6627;50.920;12.050;2023-04-05T05:22:29;98542.72;;;7.27;47.22
13124;BME280;6627;50.920;12.050;2023-04-05T05:24:57;98534.63;;;6.98;48.49
13124;BME280;6627;50.920;12.050;2023-04-05T05:27:24;98650.78;;;7.55;48.63
13124;BME280;6627;50.920;12.050;2023-04-05T05:29:53;98734.16;;;8.33;46.52
13124;BME280;6627;50.920;12.050;2023-04-05T05:32:20;98787.78;;;8.69;46.16
13124;BME280;6627;50.920;12.050;2023-04-05T05:34:48;98645.06;;;7.91;46.37
13124;BME280;6627;50.920;12.050;2023-04-05T05:37:15;98646.25;;;7.79;47.16
13124;BME280;6627;50.920;12.050;2023-04-05T05:39:43;98733.44;;;8.23;46.52
13124;BME280;6627;50.920;12.050;2023-04-05T05:42:12;98796.50;;;8.61;46.23
13124;BME280;6627;50.920;12.050;2023-04-05T05:44:39;98729.88;;;8.32;46.09
13124;BME280;6627;50.920;12.050;2023-04-05T05:47:06;98602.53;;;7.58;46.96
13124;BME280;6627;50.920;12.050;2023-04-05T05:49:33;98720.75;;;8.23;47.06
13124;BME280;6627;50.920;12.050;2023-04-05T05:52:00;98728.91;;;8.18;47.01
13124;BME280;6627;50.920;12.050;2023-04-05T05:54:28;98680.94;;;8.15;46.11
13124;BME280;6627;50.920;12.050;2023-04-05T05:56:55;98703.56;;;8.19;46.21
13124;BME280;6627;50.920;12.050;2023-04-05T05:59:24;98847.44;;;8.97;46.28
13124;BME280;6627;50.920;12.050;2023-04-05T06:01:52;98595.78;;;7.56;46.89
13124;BME280;6627;50.920;12.050;2023-04-05T06:04:19;98605.53;;;7.52;47.54
13124;BME280;6627;50.920;12.050;2023-04-05T06:06:46;98573.84;;;7.44;47.08
13124;BME280;6627;50.920;12.050;2023-04-05T06:09:14;98711.13;;;8.17;47.42
13124;BME280;6627;50.920;12.050;2023-04-05T06:11:41;98695.25;;;8.40;45.87
13124;BME280;6627;50.920;12.050;2023-04-05T06:14:10;98690.41;;;8.42;45.41
13124;BME280;6627;50.920;12.050;2023-04-05T06:16:38;98901.34;;;9.74;44.27
13124;BME280;6627;50.920;12.050;2023-04-05T06:19:06;98875.78;;;9.42;44.87
13124;BME280;6627;50.920;12.050;2023-04-05T06:21:33;98566.97;;;7.80;45.83
13124;BME280;6627;50.920;12.050;2023-04-05T06:24:00;98716.69;;;8.55;45.45
13124;BME280;6627;50.920;12.050;2023-04-05T06:26:27;98785.13;;;8.88;45.00
13124;BME280;6627;50.920;12.050;2023-04-05T06:28:55;98773.06;;;8.80;45.26
13124;BME280;6627;50.920;12.050;2023-04-05T06:31:26;98738.28;;;8.55;46.12
13124;BME280;6627;50.920;12.050;2023-04-05T06:33:58;98788.97;;;9.06;45.02
13124;BME280;6627;50.920;12.050;2023-04-05T06:36:25;98839.06;;;9.60;43.81
13124;BME280;6627;50.920;12.050;2023-04-05T06:38:54;98710.31;;;8.89;44.11
13124;BME280;6627;50.920;12.050;2023-04-05T06:41:22;98591.28;;;8.23;44.55
13124;BME280;6627;50.920;12.050;2023-04-05T06:43:49;98714.97;;;8.64;45.29
13124;BME280;6627;50.920;12.050;2023-04-05T06:46:16;98771.03;;;9.34;43.64
13124;BME280;6627;50.920;12.050;2023-04-05T06:48:43;98832.63;;;9.56;43.60
13124;BME280;6627;50.920;12.050;2023-04-05T06:51:13;98876.06;;;9.83;43.31
13124;BME280;6627;50.920;12.050;2023-04-05T06:53:41;98727.22;;;9.18;43.66
13124;BME280;6627;50.920;12.050;2023-04-05T06:56:08;98584.63;;;8.40;44.36
13124;BME280;6627;50.920;12.050;2023-04-05T06:58:36;98829.28;;;9.64;43.87
13124;BME280;6627;50.920;12.050;2023-04-05T07:01:04;98873.06;;;10.04;43.04
13124;BME280;6627;50.920;12.050;2023-04-05T07:03:32;98869.94;;;9.97;43.04
13124;BME280;6627;50.920;12.050;2023-04-05T07:06:00;98867.31;;;9.92;43.37
13124;BME280;6627;50.920;12.050;2023-04-05T07:08:31;98711.50;;;9.20;43.46
13124;BME280;6627;50.920;12.050;2023-04-05T07:10:58;98831.16;;;9.82;43.17
13124;BME280;6627;50.920;12.050;2023-04-05T07:13:28;98886.00;;;10.07;42.77
13124;BME280;6627;50.920;12.050;2023-04-05T07:15:59;98828.53;;;9.77;43.28
13124;BME280;6627;50.920;12.050;2023-04-05T07:18:27;98825.63;;;9.93;42.97
13124;BME280;6627;50.920;12.050;2023-04-05T07:20:56;98877.31;;;10.10;43.50
13124;BME280;6627;50.920;12.050;2023-04-05T07:23:27;98718.00;;;9.38;43.00
13124;BME280;6627;50.920;12.050;2023-04-05T07:25:59;98872.38;;;10.12;43.64
13124;BME280;6627;50.920;12.050;2023-04-05T07:28:29;98744.69;;;9.77;42.46
13124;BME280;6627;50.920;12.050;2023-04-05T07:30:57;99020.31;;;11.11;42.28
13124;BME280;6627;50.920;12.050;2023-04-05T07:33:24;98911.53;;;10.71;41.74
13124;BME280;6627;50.920;12.050;2023-04-05T07:35:52;98921.16;;;10.64;42.09
13124;BME280;6627;50.920;12.050;2023-04-05T07:38:20;99041.56;;;11.36;41.71
13124;BME280;6627;50.920;12.050;2023-04-05T07:40:47;99014.28;;;11.47;41.02
13124;BME280;6627;50.920;12.050;2023-04-05T07:43:18;99084.06;;;11.88;40.30
13124;BME280;6627;50.920;12.050;2023-04-05T07:45:45;98621.75;;;9.56;42.40
13124;BME280;6627;50.920;12.050;2023-04-05T07:48:12;98832.66;;;10.59;41.74
13124;BME280;6627;50.920;12.050;2023-04-05T07:50:40;98807.59;;;10.67;40.96
13124;BME280;6627;50.920;12.050;2023-04-05T07:53:12;98881.47;;;10.86;41.42
13124;BME280;6627;50.920;12.050;2023-04-05T07:55:39;98980.31;;;11.35;41.54
13124;BME280;6627;50.920;12.050;2023-04-05T07:58:07;98856.56;;;10.84;41.21
13124;BME280;6627;50.920;12.050;2023-04-05T08:00:37;98902.16;;;11.10;40.53
13124;BME280;6627;50.920;12.050;2023-04-05T08:03:04;98728.88;;;10.17;42.21
13124;BME280;6627;50.920;12.050;2023-04-05T08:05:31;98960.84;;;11.61;40.66
13124;BME280;6627;50.920;12.050;2023-04-05T08:07:58;98690.59;;;10.24;41.49
13124;BME280;6627;50.920;12.050;2023-04-05T08:10:25;98910.38;;;11.46;40.18
13124;BME280;6627;50.920;12.050;2023-04-05T08:12:53;98865.00;;;11.24;40.23
13124;BME280;6627;50.920;12.050;2023-04-05T08:15:20;98971.88;;;11.78;40.32
13124;BME280;6627;50.920;12.050;2023-04-05T08:17:49;98666.28;;;10.38;40.64
13124;BME280;6627;50.920;12.050;2023-04-05T08:20:17;98932.50;;;11.67;40.27
13124;BME280;6627;50.920;12.050;2023-04-05T08:22:44;98817.84;;;11.11;40.42
13124;BME280;6627;50.920;12.050;2023-04-05T08:25:11;98876.63;;;11.66;39.59
13124;BME280;6627;50.920;12.050;2023-04-05T08:27:38;98794.03;;;11.22;39.51
13124;BME280;6627;50.920;12.050;2023-04-05T08:30:07;99050.09;;;12.68;38.78
13124;BME280;6627;50.920;12.050;2023-04-05T08:32:34;98826.47;;;12.14;37.08
13124;BME280;6627;50.920;12.050;2023-04-05T08:35:04;98820.22;;;12.13;36.61
13124;BME280;6627;50.920;12.050;2023-04-05T08:37:33;98675.72;;;11.85;35.44
13124;BME280;6627;50.920;12.050;2023-04-05T08:40:00;98832.56;;;13.12;32.36
13124;BME280;6627;50.920;12.050;2023-04-05T08:42:33;99017.44;;;14.14;32.25
13124;BME280;6627;50.920;12.050;2023-04-05T08:45:07;98801.00;;;13.77;31.18
13124;BME280;6627;50.920;12.050;2023-04-05T08:47:36;98825.66;;;14.07;31.04
13124;BME280;6627;50.920;12.050;2023-04-05T08:50:10;98603.00;;;13.57;29.70
13124;BME280;6627;50.920;12.050;2023-04-05T08:52:39;98487.56;;;13.28;29.31
13124;BME280;6627;50.920;12.050;2023-04-05T08:55:08;98207.66;;;12.17;29.79
13124;BME280;6627;50.920;12.050;2023-04-05T08:57:42;98343.97;;;12.66;30.00
13124;BME280;6627;50.920;12.050;2023-04-05T09:00:12;98534.97;;;13.57;29.84
13124;BME280;6627;50.920;12.050;2023-04-05T09:02:42;98303.66;;;12.68;29.91
13124;BME280;6627;50.920;12.050;2023-04-05T09:05:13;98319.91;;;12.85;29.78
13124;BME280;6627;50.920;12.050;2023-04-05T09:07:44;98608.09;;;14.14;29.84
13124;BME280;6627;50.920;12.050;2023-04-05T09:10:13;98432.19;;;13.62;29.10
13124;BME280;6627;50.920;12.050;2023-04-05T09:12:40;98591.94;;;14.38;28.91
13124;BME280;6627;50.920;12.050;2023-04-05T09:15:08;98301.91;;;13.61;27.84
13124;BME280;6627;50.920;12.050;2023-04-05T09:17:38;98472.06;;;14.38;27.51
13124;BME280;6627;50.920;12.050;2023-04-05T09:20:08;98169.22;;;13.25;27.79
13124;BME280;6627;50.920;12.050;2023-04-05T09:22:43;97877.50;;;11.92;28.71
13124;BME280;6627;50.920;12.050;2023-04-05T09:25:11;98051.00;;;12.68;28.43
13124;BME280;6627;50.920;12.050;2023-04-05T09:27:53;98291.81;;;13.61;28.56
13124;BME280;6627;50.920;12.050;2023-04-05T09:30:23;98488.13;;;14.61;28.36
13124;BME280;6627;50.920;12.050;2023-04-05T09:32:51;98509.31;;;14.76;28.33
13124;BME280;6627;50.920;12.050;2023-04-05T09:35:20;98180.81;;;13.55;27.85
13124;BME280;6627;50.920;12.050;2023-04-05T09:37:52;98133.13;;;13.36;27.65
13124;BME280;6627;50.920;12.050;2023-04-05T09:40:22;98241.41;;;13.64;28.63
13124;BME280;6627;50.920;12.050;2023-04-05T09:42:51;98308.38;;;14.10;27.77
13124;BME280;6627;50.920;12.050;2023-04-05T09:45:19;98436.16;;;14.78;27.38
13124;BME280;6627;50.920;12.050;2023-04-05T09:47:55;97988.44;;;13.10;27.85
13124;BME280;6627;50.920;12.050;2023-04-05T09:50:23;98131.94;;;13.46;27.84
13124;BME280;6627;50.920;12.050;2023-04-05T09:53:06;98018.97;;;12.95;28.71
13124;BME280;6627;50.920;12.050;2023-04-05T09:55:35;98290.88;;;14.32;27.59
13124;BME280;6627;50.920;12.050;2023-04-05T09:58:02;98284.28;;;14.21;27.92
13124;BME280;6627;50.920;12.050;2023-04-05T10:00:30;98557.22;;;15.31;28.35
13124;BME280;6627;50.920;12.050;2023-04-05T10:02:58;98247.94;;;14.17;27.32
13124;BME280;6627;50.920;12.050;2023-04-05T10:05:27;98352.72;;;14.53;27.63
13124;BME280;6627;50.920;12.050;2023-04-05T10:07:56;98222.97;;;14.15;27.12
13124;BME280;6627;50.920;12.050;2023-04-05T10:10:24;98178.03;;;14.09;26.65
13124;BME280;6627;50.920;12.050;2023-04-05T10:12:52;98332.69;;;14.82;26.35
13124;BME280;6627;50.920;12.050;2023-04-05T10:15:21;98193.56;;;14.08;27.33
13124;BME280;6627;50.920;12.050;2023-04-05T10:17:58;98298.03;;;14.70;26.38
13124;BME280;6627;50.920;12.050;2023-04-05T10:20:32;98545.09;;;15.86;26.11
13124;BME280;6627;50.920;12.050;2023-04-05T10:23:07;98328.28;;;15.14;26.28
13124;BME280;6627;50.920;12.050;2023-04-05T10:25:51;98702.94;;;16.63;27.06
13124;BME280;6627;50.920;12.050;2023-04-05T10:28:29;98352.34;;;15.61;25.64
13124;BME280;6627;50.920;12.050;2023-04-05T10:31:09;97986.16;;;14.19;26.10
13124;BME280;6627;50.920;12.050;2023-04-05T10:33:42;97967.66;;;14.24;25.93
13124;BME280;6627;50.920;12.050;2023-04-05T10:36:21;98159.44;;;14.97;25.83
13124;BME280;6627;50.920;12.050;2023-04-05T10:39:02;98166.22;;;15.15;25.37
13124;BME280;6627;50.920;12.050;2023-04-05T10:41:34;97882.31;;;13.68;27.18
13124;BME280;6627;50.920;12.050;2023-04-05T10:44:04;97890.53;;;13.55;27.50
13124;BME280;6627;50.920;12.050;2023-04-05T10:46:32;97938.44;;;13.72;27.66
13124;BME280;6627;50.920;12.050;2023-04-05T10:49:10;97792.97;;;12.93;28.30
13124;BME280;6627;50.920;12.050;2023-04-05T10:51:38;97971.44;;;13.58;28.10
13124;BME280;6627;50.920;12.050;2023-04-05T10:54:10;98257.25;;;14.74;27.82
13124;BME280;6627;50.920;12.050;2023-04-05T10:56:38;97820.34;;;12.75;28.78
13124;BME280;6627;50.920;12.050;2023-04-05T10:59:07;97794.63;;;12.73;27.95
13124;BME280;6627;50.920;12.050;2023-04-05T11:01:35;98112.06;;;13.79;28.55
13124;BME280;6627;50.920;12.050;2023-04-05T11:04:11;97945.31;;;13.21;28.65
13124;BME280;6627;50.920;12.050;2023-04-05T11:06:38;97869.22;;;12.63;29.30
13124;BME280;6627;50.920;12.050;2023-04-05T11:09:17;97961.50;;;13.17;28.43
13124;BME280;6627;50.920;12.050;2023-04-05T11:11:47;98061.31;;;13.50;28.72
13124;BME280;6627;50.920;12.050;2023-04-05T11:14:20;98077.13;;;13.35;29.48
13124;BME280;6627;50.920;12.050;2023-04-05T11:16:50;97838.84;;;12.49;29.20
13124;BME280;6627;50.920;12.050;2023-04-05T11:19:49;97918.03;;;12.72;29.52
13124;BME280;6627;50.920;12.050;2023-04-05T11:22:26;98206.53;;;13.78;29.02
13124;BME280;6627;50.920;12.050;2023-04-05T11:24:57;97907.59;;;12.74;28.41
13124;BME280;6627;50.920;12.050;2023-04-05T11:27:29;98093.59;;;13.39;28.69
13124;BME280;6627;50.920;12.050;2023-04-05T11:29:58;98233.09;;;13.94;29.03
13124;BME280;6627;50.920;12.050;2023-04-05T11:32:38;98021.06;;;13.10;28.85
13124;BME280;6627;50.920;12.050;2023-04-05T11:35:12;98110.75;;;13.52;28.71
13124;BME280;6627;50.920;12.050;2023-04-05T11:37:53;98085.78;;;13.50;28.40
13124;BME280;6627;50.920;12.050;2023-04-05T11:40:27;98241.69;;;13.83;29.40
13124;BME280;6627;50.920;12.050;2023-04-05T11:43:01;98222.22;;;13.94;28.69
13124;BME280;6627;50.920;12.050;2023-04-05T11:45:29;98031.91;;;13.31;28.33
13124;BME280;6627;50.920;12.050;2023-04-05T11:47:59;98083.31;;;13.57;28.10
13124;BME280;6627;50.920;12.050;2023-04-05T11:50:27;97922.50;;;12.88;28.40
13124;BME280;6627;50.920;12.050;2023-04-05T11:53:12;98177.28;;;13.87;28.23
13124;BME280;6627;50.920;12.050;2023-04-05T11:55:44;98135.72;;;13.66;28.35
13124;BME280;6627;50.920;12.050;2023-04-05T11:58:14;98157.75;;;13.73;28.54
13124;BME280;6627;50.920;12.050;2023-04-05T12:00:42;98210.47;;;14.14;27.89
13124;BME280;6627;50.920;12.050;2023-04-05T12:03:11;98083.31;;;13.57;28.36
13124;BME280;6627;50.920;12.050;2023-04-05T12:05:46;98310.72;;;14.54;27.81
13124;BME280;6627;50.920;12.050;2023-04-05T12:08:14;98464.59;;;15.35;27.77
13124;BME280;6627;50.920;12.050;2023-04-05T12:10:42;98408.09;;;15.23;27.58
13124;BME280;6627;50.920;12.050;2023-04-05T12:13:10;98239.41;;;14.64;27.42
13124;BME280;6627;50.920;12.050;2023-04-05T12:15:43;97906.34;;;13.17;27.96
13124;BME280;6627;50.920;12.050;2023-04-05T12:18:13;98131.28;;;14.19;27.07
13124;BME280;6627;50.920;12.050;2023-04-05T12:20:41;98138.69;;;14.31;26.62
13124;BME280;6627;50.920;12.050;2023-04-05T12:23:08;98252.81;;;14.69;27.06
13124;BME280;6627;50.920;12.050;2023-04-05T12:25:36;98514.81;;;16.16;25.90
13124;BME280;6627;50.920;12.050;2023-04-05T12:28:08;98033.34;;;14.35;26.15
13124;BME280;6627;50.920;12.050;2023-04-05T12:30:47;97746.50;;;13.22;26.38
13124;BME280;6627;50.920;12.050;2023-04-05T12:33:24;98108.41;;;14.57;26.28
13124;BME280;6627;50.920;12.050;2023-04-05T12:35:52;98185.78;;;15.05;25.57
13124;BME280;6627;50.920;12.050;2023-04-05T12:38:24;98143.34;;;14.79;26.24
13124;BME280;6627;50.920;12.050;2023-04-05T12:40:53;97751.03;;;13.18;26.83
13124;BME280;6627;50.920;12.050;2023-04-05T12:43:22;98093.81;;;14.65;26.47
13124;BME280;6627;50.920;12.050;2023-04-05T12:45:52;98389.16;;;16.16;25.47
13124;BME280;6627;50.920;12.050;2023-04-05T12:48:23;98316.78;;;15.98;25.21
13124;BME280;6627;50.920;12.050;2023-04-05T12:50:51;97851.72;;;14.11;25.96
13124;BME280;6627;50.920;12.050;2023-04-05T12:53:22;98332.38;;;15.97;25.79
13124;BME280;6627;50.920;12.050;2023-04-05T12:55:52;98168.13;;;15.55;25.32
13124;BME280;6627;50.920;12.050;2023-04-05T12:58:30;97954.97;;;14.56;25.85
13124;BME280;6627;50.920;12.050;2023-04-05T13:01:01;97607.03;;;13.34;26.12
13124;BME280;6627;50.920;12.050;2023-04-05T13:03:29;97876.69;;;14.13;26.55
13124;BME280;6627;50.920;12.050;2023-04-05T13:05:56;98028.41;;;14.65;26.88
13124;BME280;6627;50.920;12.050;2023-04-05T13:08:24;98160.50;;;15.32;26.09
13124;BME280;6627;50.920;12.050;2023-04-05T13:10:52;97907.94;;;14.31;26.30
13124;BME280;6627;50.920;12.050;2023-04-05T13:13:21;97781.72;;;13.83;26.87
13124;BME280;6627;50.920;12.050;2023-04-05T13:15:48;98139.13;;;15.22;26.52
13124;BME280;6627;50.920;12.050;2023-04-05T13:18:15;98107.31;;;14.86;27.87
13124;BME280;6627;50.920;12.050;2023-04-05T13:20:44;98077.03;;;14.75;27.61